sensor_id;sensor_type;location;lat;lon;timestamp;pressure;altitude;pressure_sealevel;temperature;humidity
64158;BME280;50449;51.528;5.076;2023-06-22T00:01:08;101774.31;;;29.34;33.83
64158;BME280;50449;51.528;5.076;2023-06-22T00:03:33;101770.25;;;29.31;33.83
64158;BME280;50449;51.528;5.076;2023-06-22T00:05:59;101776.53;;;29.28;33.56
64158;BME280;50449;51.528;5.076;2023-06-22T00:08:24;101771.28;;;29.27;33.83
64158;BME280;50449;51.528;5.076;2023-06-22T00:10:50;101770.00;;;29.24;33.79
64158;BME280;50449;51.528;5.076;2023-06-22T00:13:16;101769.91;;;29.21;33.69
64158;BME280;50449;51.528;5.076;2023-06-22T00:15:43;101762.22;;;29.18;34.05
64158;BME280;50449;51.528;5.076;2023-06-22T00:18:10;101765.38;;;29.16;33.84
64158;BME280;50449;51.528;5.076;2023-06-22T00:20:36;101764.44;;;29.12;33.78
64158;BME280;50449;51.528;5.076;2023-06-22T00:23:06;101761.16;;;29.10;33.94
64158;BME280;50449;51.528;5.076;2023-06-22T00:25:33;101766.25;;;29.08;33.98
64158;BME280;50449;51.528;5.076;2023-06-22T00:27:58;101761.34;;;29.05;33.77
64158;BME280;50449;51.528;5.076;2023-06-22T00:30:24;101766.81;;;29.01;33.96
64158;BME280;50449;51.528;5.076;2023-06-22T00:32:49;101763.56;;;28.99;33.96
64158;BME280;50449;51.528;5.076;2023-06-22T00:35:15;101766.22;;;28.96;33.84
64158;BME280;50449;51.528;5.076;2023-06-22T00:37:40;101764.09;;;28.92;34.03
64158;BME280;50449;51.528;5.076;2023-06-22T00:40:08;101767.25;;;28.91;34.06
64158;BME280;50449;51.528;5.076;2023-06-22T00:42:36;101761.53;;;28.87;34.37
64158;BME280;50449;51.528;5.076;2023-06-22T00:45:02;101760.25;;;28.85;34.22
64158;BME280;50449;51.528;5.076;2023-06-22T00:47:27;101753.41;;;28.82;34.14
64158;BME280;50449;51.528;5.076;2023-06-22T00:49:53;101744.97;;;28.79;34.26
64158;BME280;50449;51.528;5.076;2023-06-22T00:52:22;101742.50;;;28.77;34.40
64158;BME280;50449;51.528;5.076;2023-06-22T00:54:52;101747.97;;;28.74;34.16
64158;BME280;50449;51.528;5.076;2023-06-22T00:57:19;101736.69;;;28.70;34.12
64158;BME280;50449;51.528;5.076;2023-06-22T00:59:46;101735.41;;;28.67;34.25
64158;BME280;50449;51.528;5.076;2023-06-22T01:02:13;101733.00;;;28.66;34.47
64158;BME280;50449;51.528;5.076;2023-06-22T01:04:39;101732.03;;;28.62;34.45
64158;BME280;50449;51.528;5.076;2023-06-22T01:12:42;101740.81;;;28.52;34.46
64158;BME280;50449;51.528;5.076;2023-06-22T01:15:23;101733.16;;;28.48;34.42
64158;BME280;50449;51.528;5.076;2023-06-22T01:17:52;101741.00;;;28.46;34.66
64158;BME280;50449;51.528;5.076;2023-06-22T01:20:19;101744.44;;;28.43;34.61
64158;BME280;50449;51.528;5.076;2023-06-22T01:25:28;101743.00;;;28.37;34.59
64158;BME280;50449;51.528;5.076;2023-06-22T01:30:29;101745.19;;;28.32;34.89
64158;BME280;50449;51.528;5.076;2023-06-22T01:32:58;101738.34;;;28.29;34.93
64158;BME280;50449;51.528;5.076;2023-06-22T01:35:25;101744.25;;;28.27;34.59
64158;BME280;50449;51.528;5.076;2023-06-22T01:37:50;101740.53;;;28.23;34.75
64158;BME280;50449;51.528;5.076;2023-06-22T01:40:16;101747.56;;;28.21;34.75
64158;BME280;50449;51.528;5.076;2023-06-22T01:42:43;101742.69;;;28.18;34.74
64158;BME280;50449;51.528;5.076;2023-06-22T01:45:11;101749.38;;;28.17;34.80
64158;BME280;50449;51.528;5.076;2023-06-22T01:47:38;101742.53;;;28.14;34.67
64158;BME280;50449;51.528;5.076;2023-06-22T01:50:05;101741.25;;;28.12;34.87
64158;BME280;50449;51.528;5.076;2023-06-22T01:52:30;101739.16;;;28.09;34.93
64158;BME280;50449;51.528;5.076;2023-06-22T01:54:58;101737.06;;;28.05;34.99
64158;BME280;50449;51.528;5.076;2023-06-22T01:57:24;101739.69;;;28.02;34.63
64158;BME280;50449;51.528;5.076;2023-06-22T01:59:53;101743.16;;;27.99;34.96
64158;BME280;50449;51.528;5.076;2023-06-22T02:02:24;101739.09;;;27.96;35.27
64158;BME280;50449;51.528;5.076;2023-06-22T02:04:58;101734.22;;;27.93;34.98
64158;BME280;50449;51.528;5.076;2023-06-22T02:07:29;101737.31;;;27.92;35.08
64158;BME280;50449;51.528;5.076;2023-06-22T02:09:58;101738.81;;;27.89;35.46
64158;BME280;50449;51.528;5.076;2023-06-22T02:12:26;101730.81;;;27.88;35.39
64158;BME280;50449;51.528;5.076;2023-06-22T02:14:53;101739.84;;;27.85;35.21
64158;BME280;50449;51.528;5.076;2023-06-22T02:17:19;101730.19;;;27.82;35.33
64158;BME280;50449;51.528;5.076;2023-06-22T02:19:45;101728.06;;;27.79;35.38
64158;BME280;50449;51.528;5.076;2023-06-22T02:22:10;101732.00;;;27.78;35.45
64158;BME280;50449;51.528;5.076;2023-06-22T02:24:37;101727.94;;;27.75;35.41
64158;BME280;50449;51.528;5.076;2023-06-22T02:27:03;101721.09;;;27.73;35.61
64158;BME280;50449;51.528;5.076;2023-06-22T02:29:29;101713.44;;;27.70;35.28
64158;BME280;50449;51.528;5.076;2023-06-22T02:31:55;101714.91;;;27.67;35.75
64158;BME280;50449;51.528;5.076;2023-06-22T02:34:21;101718.03;;;27.66;35.69
64158;BME280;50449;51.528;5.076;2023-06-22T02:36:48;101717.53;;;27.63;35.78
64158;BME280;50449;51.528;5.076;2023-06-22T02:39:21;101713.47;;;27.61;35.71
64158;BME280;50449;51.528;5.076;2023-06-22T02:41:51;101708.59;;;27.58;35.63
64158;BME280;50449;51.528;5.076;2023-06-22T02:44:17;101713.66;;;27.56;36.04
64158;BME280;50449;51.528;5.076;2023-06-22T02:46:44;101716.78;;;27.54;35.84
64158;BME280;50449;51.528;5.076;2023-06-22T02:49:10;101720.22;;;27.51;35.88
64158;BME280;50449;51.528;5.076;2023-06-22T02:51:38;101724.47;;;27.49;35.82
64158;BME280;50449;51.528;5.076;2023-06-22T02:54:05;101716.50;;;27.47;35.84
64158;BME280;50449;51.528;5.076;2023-06-22T02:56:31;101718.78;;;27.45;35.87
64158;BME280;50449;51.528;5.076;2023-06-22T02:58:56;101716.34;;;27.44;36.02
64158;BME280;50449;51.528;5.076;2023-06-22T03:01:28;101712.28;;;27.41;35.86
64158;BME280;50449;51.528;5.076;2023-06-22T03:03:56;101701.03;;;27.37;36.15
64158;BME280;50449;51.528;5.076;2023-06-22T03:06:21;101697.78;;;27.35;36.07
64158;BME280;50449;51.528;5.076;2023-06-22T03:09:01;101695.31;;;27.34;36.13
64158;BME280;50449;51.528;5.076;2023-06-22T03:11:27;101684.09;;;27.30;36.01
64158;BME280;50449;51.528;5.076;2023-06-22T03:13:52;101686.38;;;27.28;36.01
64158;BME280;50449;51.528;5.076;2023-06-22T03:16:18;101685.09;;;27.26;36.09
64158;BME280;50449;51.528;5.076;2023-06-22T03:18:44;101674.34;;;27.24;36.21
64158;BME280;50449;51.528;5.076;2023-06-22T03:21:09;101678.59;;;27.22;36.24
64158;BME280;50449;51.528;5.076;2023-06-22T03:23:35;101676.97;;;27.21;36.18
64158;BME280;50449;51.528;5.076;2023-06-22T03:26:01;101669.28;;;27.17;36.37
64158;BME280;50449;51.528;5.076;2023-06-22T03:28:27;101675.97;;;27.16;36.01
64158;BME280;50449;51.528;5.076;2023-06-22T03:30:52;101679.41;;;27.13;36.19
64158;BME280;50449;51.528;5.076;2023-06-22T03:33:17;101679.75;;;27.12;36.07
64158;BME280;50449;51.528;5.076;2023-06-22T03:35:43;101670.94;;;27.10;36.37
64158;BME280;50449;51.528;5.076;2023-06-22T03:38:08;101677.97;;;27.07;36.46
64158;BME280;50449;51.528;5.076;2023-06-22T03:40:34;101680.25;;;27.05;36.18
64158;BME280;50449;51.528;5.076;2023-06-22T03:42:59;101676.19;;;27.03;36.30
64158;BME280;50449;51.528;5.076;2023-06-22T03:45:24;101672.13;;;27.00;36.48
64158;BME280;50449;51.528;5.076;2023-06-22T03:47:50;101670.03;;;26.97;36.50
64158;BME280;50449;51.528;5.076;2023-06-22T03:50:15;101673.91;;;26.96;36.41
64158;BME280;50449;51.528;5.076;2023-06-22T03:52:41;101669.84;;;26.93;36.62
64158;BME280;50449;51.528;5.076;2023-06-22T03:55:07;101661.09;;;26.91;36.63
64158;BME280;50449;51.528;5.076;2023-06-22T03:57:33;101669.72;;;26.90;36.47
64158;BME280;50449;51.528;5.076;2023-06-22T03:59:59;101664.50;;;26.88;36.89
64158;BME280;50449;51.528;5.076;2023-06-22T04:02:25;101668.75;;;26.86;36.73
64158;BME280;50449;51.528;5.076;2023-06-22T04:04:51;101668.25;;;26.84;36.74
64158;BME280;50449;51.528;5.076;2023-06-22T04:07:16;101666.16;;;26.81;36.63
64158;BME280;50449;51.528;5.076;2023-06-22T04:09:43;101663.72;;;26.79;36.57
64158;BME280;50449;51.528;5.076;2023-06-22T04:12:09;101666.81;;;26.77;36.93
64158;BME280;50449;51.528;5.076;2023-06-22T04:14:34;101660.28;;;26.73;36.60
64158;BME280;50449;51.528;5.076;2023-06-22T04:17:01;101660.66;;;26.72;36.89
64158;BME280;50449;51.528;5.076;2023-06-22T04:19:26;101662.59;;;26.71;36.92
64158;BME280;50449;51.528;5.076;2023-06-22T04:21:52;101661.31;;;26.69;37.17
64158;BME280;50449;51.528;5.076;2023-06-22T04:24:17;101666.38;;;26.67;37.06
64158;BME280;50449;51.528;5.076;2023-06-22T04:26:43;101665.88;;;26.65;36.91
64158;BME280;50449;51.528;5.076;2023-06-22T04:29:11;101665.38;;;26.63;36.77
64158;BME280;50449;51.528;5.076;2023-06-22T04:31:36;101668.50;;;26.61;36.97
64158;BME280;50449;51.528;5.076;2023-06-22T04:34:03;101673.56;;;26.59;37.18
64158;BME280;50449;51.528;5.076;2023-06-22T04:36:35;101678.59;;;26.57;37.51
64158;BME280;50449;51.528;5.076;2023-06-22T04:39:08;101680.88;;;26.55;37.39
64158;BME280;50449;51.528;5.076;2023-06-22T04:41:35;101688.69;;;26.53;37.39
64158;BME280;50449;51.528;5.076;2023-06-22T04:44:14;101685.41;;;26.51;37.47
64158;BME280;50449;51.528;5.076;2023-06-22T04:46:52;101678.56;;;26.48;37.26
64158;BME280;50449;51.528;5.076;2023-06-22T04:49:25;101672.56;;;26.46;37.49
64158;BME280;50449;51.528;5.076;2023-06-22T04:51:58;101678.44;;;26.45;37.67
64158;BME280;50449;51.528;5.076;2023-06-22T04:54:23;101679.59;;;26.44;37.61
64158;BME280;50449;51.528;5.076;2023-06-22T04:56:49;101676.31;;;26.42;37.53
64158;BME280;50449;51.528;5.076;2023-06-22T04:59:22;101679.41;;;26.40;37.76
64158;BME280;50449;51.528;5.076;2023-06-22T05:01:47;101668.66;;;26.39;37.23
64158;BME280;50449;51.528;5.076;2023-06-22T05:04:13;101674.84;;;26.36;37.26
64158;BME280;50449;51.528;5.076;2023-06-22T05:06:39;101670.47;;;26.34;37.55
64158;BME280;50449;51.528;5.076;2023-06-22T05:09:05;101670.78;;;26.33;37.87
64158;BME280;50449;51.528;5.076;2023-06-22T05:11:30;101673.88;;;26.31;37.97
64158;BME280;50449;51.528;5.076;2023-06-22T05:13:56;101668.66;;;26.30;38.05
64158;BME280;50449;51.528;5.076;2023-06-22T05:16:22;101670.63;;;26.29;37.96
64158;BME280;50449;51.528;5.076;2023-06-22T05:18:55;101658.25;;;26.27;37.63
64158;BME280;50449;51.528;5.076;2023-06-22T05:21:22;101658.56;;;26.25;37.60
64158;BME280;50449;51.528;5.076;2023-06-22T05:23:48;101661.69;;;26.24;37.62
64158;BME280;50449;51.528;5.076;2023-06-22T05:26:14;101662.00;;;26.22;37.51
64158;BME280;50449;51.528;5.076;2023-06-22T05:28:39;101655.66;;;26.22;37.43
64158;BME280;50449;51.528;5.076;2023-06-22T05:31:05;101655.16;;;26.20;37.75
64158;BME280;50449;51.528;5.076;2023-06-22T05:33:30;101661.84;;;26.19;37.38
64158;BME280;50449;51.528;5.076;2023-06-22T05:35:56;101661.34;;;26.17;37.61
64158;BME280;50449;51.528;5.076;2023-06-22T05:38:21;101662.81;;;26.14;37.79
64158;BME280;50449;51.528;5.076;2023-06-22T05:40:46;101656.47;;;26.14;37.82
64158;BME280;50449;51.528;5.076;2023-06-22T05:43:12;101660.38;;;26.12;37.70
64158;BME280;50449;51.528;5.076;2023-06-22T05:45:37;101655.16;;;26.11;37.83
64158;BME280;50449;51.528;5.076;2023-06-22T05:48:03;101657.94;;;26.11;37.77
64158;BME280;50449;51.528;5.076;2023-06-22T05:50:28;101654.69;;;26.09;38.01
64158;BME280;50449;51.528;5.076;2023-06-22T05:52:54;101662.97;;;26.09;38.17
64158;BME280;50449;51.528;5.076;2023-06-22T05:55:19;101662.97;;;26.09;38.41
64158;BME280;50449;51.528;5.076;2023-06-22T05:57:44;101660.22;;;26.09;38.21
64158;BME280;50449;51.528;5.076;2023-06-22T06:00:10;101654.69;;;26.09;38.72
64158;BME280;50449;51.528;5.076;2023-06-22T06:02:37;101661.34;;;26.08;39.01
64158;BME280;50449;51.528;5.076;2023-06-22T06:05:12;101658.56;;;26.08;38.50
64158;BME280;50449;51.528;5.076;2023-06-22T06:07:44;101656.94;;;26.07;38.94
64158;BME280;50449;51.528;5.076;2023-06-22T06:10:10;101663.28;;;26.07;38.85
64158;BME280;50449;51.528;5.076;2023-06-22T06:12:35;101654.19;;;26.07;38.37
64158;BME280;50449;51.528;5.076;2023-06-22T06:15:01;101655.81;;;26.08;38.80
64158;BME280;50449;51.528;5.076;2023-06-22T06:17:27;101655.81;;;26.08;38.55
64158;BME280;50449;51.528;5.076;2023-06-22T06:19:52;101651.41;;;26.07;38.79
64158;BME280;50449;51.528;5.076;2023-06-22T06:22:18;101650.25;;;26.08;38.55
64158;BME280;50449;51.528;5.076;2023-06-22T06:24:44;101647.50;;;26.08;38.81
64158;BME280;50449;51.528;5.076;2023-06-22T06:27:10;101651.09;;;26.08;39.01
64158;BME280;50449;51.528;5.076;2023-06-22T06:29:36;101655.47;;;26.09;38.85
64158;BME280;50449;51.528;5.076;2023-06-22T06:32:01;101657.94;;;26.11;39.13
64158;BME280;50449;51.528;5.076;2023-06-22T06:34:26;101652.41;;;26.11;39.33
64158;BME280;50449;51.528;5.076;2023-06-22T06:36:52;101644.91;;;26.11;38.84
64158;BME280;50449;51.528;5.076;2023-06-22T06:39:17;101652.06;;;26.12;38.64
64158;BME280;50449;51.528;5.076;2023-06-22T06:41:43;101646.53;;;26.12;38.95
64158;BME280;50449;51.528;5.076;2023-06-22T06:44:08;101639.84;;;26.14;38.71
64158;BME280;50449;51.528;5.076;2023-06-22T06:46:33;101641.47;;;26.15;39.02
64158;BME280;50449;51.528;5.076;2023-06-22T06:48:59;101649.47;;;26.16;38.79
64158;BME280;50449;51.528;5.076;2023-06-22T06:51:24;101642.78;;;26.17;39.30
64158;BME280;50449;51.528;5.076;2023-06-22T06:53:50;101648.31;;;26.17;38.99
64158;BME280;50449;51.528;5.076;2023-06-22T06:56:16;101653.53;;;26.19;39.83
64158;BME280;50449;51.528;5.076;2023-06-22T06:58:41;101655.47;;;26.18;39.84
64158;BME280;50449;51.528;5.076;2023-06-22T07:01:08;101649.94;;;26.18;39.65
64158;BME280;50449;51.528;5.076;2023-06-22T07:03:33;101649.94;;;26.18;39.91
64158;BME280;50449;51.528;5.076;2023-06-22T07:05:59;101644.06;;;26.20;39.66
64158;BME280;50449;51.528;5.076;2023-06-22T07:08:25;101642.94;;;26.21;39.89
64158;BME280;50449;51.528;5.076;2023-06-22T07:10:51;101643.75;;;26.21;40.22
64158;BME280;50449;51.528;5.076;2023-06-22T07:13:17;101646.19;;;26.23;40.69
64158;BME280;50449;51.528;5.076;2023-06-22T07:15:42;101644.25;;;26.23;41.57
64158;BME280;50449;51.528;5.076;2023-06-22T07:18:08;101650.59;;;26.24;40.96
64158;BME280;50449;51.528;5.076;2023-06-22T07:20:33;101639.53;;;26.24;40.90
64158;BME280;50449;51.528;5.076;2023-06-22T07:22:59;101636.41;;;26.25;40.98
64158;BME280;50449;51.528;5.076;2023-06-22T07:25:25;101640.00;;;26.26;40.73
64158;BME280;50449;51.528;5.076;2023-06-22T07:28:02;101640.81;;;26.26;40.42
64158;BME280;50449;51.528;5.076;2023-06-22T07:30:28;101638.06;;;26.26;41.09
64158;BME280;50449;51.528;5.076;2023-06-22T07:32:54;101641.31;;;26.28;40.75
64158;BME280;50449;51.528;5.076;2023-06-22T07:35:19;101642.13;;;26.29;41.28
64158;BME280;50449;51.528;5.076;2023-06-22T07:37:45;101635.44;;;26.30;41.45
64158;BME280;50449;51.528;5.076;2023-06-22T07:40:11;101632.34;;;26.31;41.41
64158;BME280;50449;51.528;5.076;2023-06-22T07:42:37;101621.25;;;26.31;41.13
64158;BME280;50449;51.528;5.076;2023-06-22T07:45:05;101621.75;;;26.33;41.52
64158;BME280;50449;51.528;5.076;2023-06-22T07:47:33;101619.78;;;26.34;41.84
64158;BME280;50449;51.528;5.076;2023-06-22T07:50:01;101612.28;;;26.34;41.43
64158;BME280;50449;51.528;5.076;2023-06-22T07:52:27;101610.31;;;26.35;41.46
64158;BME280;50449;51.528;5.076;2023-06-22T07:54:53;101598.44;;;26.34;41.58
64158;BME280;50449;51.528;5.076;2023-06-22T07:57:19;101591.75;;;26.36;41.75
64158;BME280;50449;51.528;5.076;2023-06-22T07:59:44;101578.72;;;26.36;41.11
64158;BME280;50449;51.528;5.076;2023-06-22T08:02:10;101583.13;;;26.37;41.48
64158;BME280;50449;51.528;5.076;2023-06-22T08:04:36;101581.16;;;26.38;41.56
64158;BME280;50449;51.528;5.076;2023-06-22T08:07:02;101577.25;;;26.39;41.39
64158;BME280;50449;51.528;5.076;2023-06-22T08:09:31;101571.72;;;26.39;41.28
64158;BME280;50449;51.528;5.076;2023-06-22T08:11:57;101562.25;;;26.40;41.03
64158;BME280;50449;51.528;5.076;2023-06-22T08:14:25;101561.44;;;26.39;40.72
64158;BME280;50449;51.528;5.076;2023-06-22T08:16:50;101551.97;;;26.40;40.83
64158;BME280;50449;51.528;5.076;2023-06-22T08:19:15;101551.66;;;26.42;40.89
64158;BME280;50449;51.528;5.076;2023-06-22T08:21:42;101561.59;;;26.43;40.95
64158;BME280;50449;51.528;5.076;2023-06-22T08:24:08;101557.69;;;26.44;40.83
64158;BME280;50449;51.528;5.076;2023-06-22T08:26:33;101564.84;;;26.45;41.13
64158;BME280;50449;51.528;5.076;2023-06-22T08:29:05;101572.84;;;26.46;41.22
64158;BME280;50449;51.528;5.076;2023-06-22T08:31:31;101573.66;;;26.47;41.15
64158;BME280;50449;51.528;5.076;2023-06-22T08:33:58;101575.25;;;26.48;41.06
64158;BME280;50449;51.528;5.076;2023-06-22T08:36:24;101572.50;;;26.48;41.19
64158;BME280;50449;51.528;5.076;2023-06-22T08:38:49;101565.81;;;26.49;41.40
64158;BME280;50449;51.528;5.076;2023-06-22T08:41:17;101564.66;;;26.50;41.36
64158;BME280;50449;51.528;5.076;2023-06-22T08:43:43;101562.69;;;26.50;40.80
64158;BME280;50449;51.528;5.076;2023-06-22T08:46:09;101556.84;;;26.52;41.01
64158;BME280;50449;51.528;5.076;2023-06-22T08:48:35;101552.13;;;26.52;40.95
64158;BME280;50449;51.528;5.076;2023-06-22T08:51:01;101555.41;;;26.54;41.07
64158;BME280;50449;51.528;5.076;2023-06-22T08:53:27;101547.88;;;26.55;40.41
64158;BME280;50449;51.528;5.076;2023-06-22T08:55:53;101549.53;;;26.56;40.93
64158;BME280;50449;51.528;5.076;2023-06-22T08:58:18;101544.81;;;26.57;40.95
64158;BME280;50449;51.528;5.076;2023-06-22T09:00:45;101537.28;;;26.57;40.59
64158;BME280;50449;51.528;5.076;2023-06-22T09:03:10;101542.50;;;26.59;40.25
64158;BME280;50449;51.528;5.076;2023-06-22T09:05:37;101540.56;;;26.59;40.69
64158;BME280;50449;51.528;5.076;2023-06-22T09:08:02;101544.13;;;26.60;40.07
64158;BME280;50449;51.528;5.076;2023-06-22T09:10:28;101533.03;;;26.60;40.45
64158;BME280;50449;51.528;5.076;2023-06-22T09:12:53;101533.03;;;26.60;40.16
64158;BME280;50449;51.528;5.076;2023-06-22T09:15:19;101526.34;;;26.61;40.34
64158;BME280;50449;51.528;5.076;2023-06-22T09:17:44;101529.59;;;26.63;40.51
64158;BME280;50449;51.528;5.076;2023-06-22T09:20:11;101533.19;;;26.63;40.34
64158;BME280;50449;51.528;5.076;2023-06-22T09:22:37;101532.06;;;26.64;40.53
64158;BME280;50449;51.528;5.076;2023-06-22T09:25:03;101522.09;;;26.63;39.78
64158;BME280;50449;51.528;5.076;2023-06-22T09:27:28;101534.00;;;26.64;39.82
64158;BME280;50449;51.528;5.076;2023-06-22T09:29:54;101520.97;;;26.64;40.05
64158;BME280;50449;51.528;5.076;2023-06-22T09:32:20;101522.59;;;26.65;40.00
64158;BME280;50449;51.528;5.076;2023-06-22T09:39:55;101519.50;;;26.67;40.38
64158;BME280;50449;51.528;5.076;2023-06-22T09:42:21;101519.50;;;26.67;40.24
64158;BME280;50449;51.528;5.076;2023-06-22T09:44:46;101515.91;;;26.66;40.38
64158;BME280;50449;51.528;5.076;2023-06-22T09:47:11;101513.94;;;26.67;39.74
64158;BME280;50449;51.528;5.076;2023-06-22T09:49:37;101520.28;;;26.67;40.14
64158;BME280;50449;51.528;5.076;2023-06-22T09:52:02;101518.31;;;26.68;40.39
64158;BME280;50449;51.528;5.076;2023-06-22T09:54:28;101520.28;;;26.67;40.13
64158;BME280;50449;51.528;5.076;2023-06-22T09:56:53;101519.13;;;26.68;39.95
64158;BME280;50449;51.528;5.076;2023-06-22T09:59:18;101521.91;;;26.68;39.85
64158;BME280;50449;51.528;5.076;2023-06-22T10:01:44;101516.38;;;26.68;39.93
64158;BME280;50449;51.528;5.076;2023-06-22T10:04:09;101526.31;;;26.69;39.99
64158;BME280;50449;51.528;5.076;2023-06-22T10:06:35;101526.31;;;26.69;39.88
64158;BME280;50449;51.528;5.076;2023-06-22T10:09:00;101532.66;;;26.70;40.05
64158;BME280;50449;51.528;5.076;2023-06-22T10:11:25;101525.16;;;26.70;40.29
64158;BME280;50449;51.528;5.076;2023-06-22T10:13:55;101523.19;;;26.71;40.26
64158;BME280;50449;51.528;5.076;2023-06-22T10:16:20;101534.28;;;26.71;40.06
64158;BME280;50449;51.528;5.076;2023-06-22T10:18:46;101535.94;;;26.72;40.03
64158;BME280;50449;51.528;5.076;2023-06-22T10:21:11;101529.56;;;26.71;40.30
64158;BME280;50449;51.528;5.076;2023-06-22T10:23:37;101529.56;;;26.71;39.81
64158;BME280;50449;51.528;5.076;2023-06-22T10:26:02;101535.13;;;26.71;40.25
64158;BME280;50449;51.528;5.076;2023-06-22T10:28:27;101530.38;;;26.72;40.00
64158;BME280;50449;51.528;5.076;2023-06-22T10:30:53;101541.13;;;26.73;40.69
64158;BME280;50449;51.528;5.076;2023-06-22T10:33:18;101535.56;;;26.73;40.62
64158;BME280;50449;51.528;5.076;2023-06-22T10:35:44;101542.75;;;26.74;40.25
64158;BME280;50449;51.528;5.076;2023-06-22T10:38:09;101543.88;;;26.73;40.43
64158;BME280;50449;51.528;5.076;2023-06-22T10:40:35;101538.34;;;26.73;40.64
64158;BME280;50449;51.528;5.076;2023-06-22T10:43:00;101544.72;;;26.74;40.86
64158;BME280;50449;51.528;5.076;2023-06-22T10:45:26;101540.00;;;26.74;40.75
64158;BME280;50449;51.528;5.076;2023-06-22T10:47:52;101550.72;;;26.76;40.37
64158;BME280;50449;51.528;5.076;2023-06-22T10:50:18;101547.94;;;26.76;40.91
64158;BME280;50449;51.528;5.076;2023-06-22T10:52:43;101552.69;;;26.75;40.61
64158;BME280;50449;51.528;5.076;2023-06-22T10:55:09;101557.09;;;26.76;40.76
64158;BME280;50449;51.528;5.076;2023-06-22T10:57:35;101557.91;;;26.77;40.68
64158;BME280;50449;51.528;5.076;2023-06-22T11:00:02;101567.84;;;26.78;41.26
64158;BME280;50449;51.528;5.076;2023-06-22T11:02:31;101569.81;;;26.77;41.26
64158;BME280;50449;51.528;5.076;2023-06-22T11:04:56;101569.81;;;26.77;41.41
64158;BME280;50449;51.528;5.076;2023-06-22T11:07:21;101563.09;;;26.79;41.34
64158;BME280;50449;51.528;5.076;2023-06-22T11:09:47;101562.28;;;26.78;41.10
64158;BME280;50449;51.528;5.076;2023-06-22T11:12:12;101563.94;;;26.79;40.74
64158;BME280;50449;51.528;5.076;2023-06-22T11:14:39;101552.84;;;26.79;40.79
64158;BME280;50449;51.528;5.076;2023-06-22T11:17:04;101560.34;;;26.79;40.71
64158;BME280;50449;51.528;5.076;2023-06-22T11:19:30;101555.63;;;26.79;40.97
64158;BME280;50449;51.528;5.076;2023-06-22T11:21:55;101550.09;;;26.79;41.02
64158;BME280;50449;51.528;5.076;2023-06-22T11:24:20;101553.66;;;26.80;41.13
64158;BME280;50449;51.528;5.076;2023-06-22T11:26:46;101554.47;;;26.80;41.32
64158;BME280;50449;51.528;5.076;2023-06-22T11:29:11;101547.31;;;26.79;41.64
64158;BME280;50449;51.528;5.076;2023-06-22T11:31:37;101548.59;;;26.82;41.49
64158;BME280;50449;51.528;5.076;2023-06-22T11:34:03;101542.22;;;26.81;41.54
64158;BME280;50449;51.528;5.076;2023-06-22T11:36:29;101534.25;;;26.80;41.76
64158;BME280;50449;51.528;5.076;2023-06-22T11:38:58;101530.31;;;26.81;41.75
64158;BME280;50449;51.528;5.076;2023-06-22T11:41:23;101539.81;;;26.80;42.03
64158;BME280;50449;51.528;5.076;2023-06-22T11:43:48;101531.97;;;26.82;41.74
64158;BME280;50449;51.528;5.076;2023-06-22T11:46:14;101534.75;;;26.82;42.27
64158;BME280;50449;51.528;5.076;2023-06-22T11:48:39;101540.28;;;26.82;42.10
64158;BME280;50449;51.528;5.076;2023-06-22T11:51:05;101533.09;;;26.81;42.29
64158;BME280;50449;51.528;5.076;2023-06-22T11:53:31;101535.88;;;26.81;42.18
64158;BME280;50449;51.528;5.076;2023-06-22T11:55:57;101535.88;;;26.81;42.04
64158;BME280;50449;51.528;5.076;2023-06-22T11:58:22;101535.53;;;26.82;42.04
64158;BME280;50449;51.528;5.076;2023-06-22T12:00:48;101541.41;;;26.81;41.87
64158;BME280;50449;51.528;5.076;2023-06-22T12:03:14;101538.66;;;26.81;41.68
64158;BME280;50449;51.528;5.076;2023-06-22T12:05:40;101541.41;;;26.81;42.05
64158;BME280;50449;51.528;5.076;2023-06-22T12:08:05;101537.84;;;26.80;41.52
64158;BME280;50449;51.528;5.076;2023-06-22T12:10:31;101529.53;;;26.80;41.64
64158;BME280;50449;51.528;5.076;2023-06-22T12:12:56;101531.50;;;26.80;41.59
64158;BME280;50449;51.528;5.076;2023-06-22T12:15:23;101524.31;;;26.79;41.34
64158;BME280;50449;51.528;5.076;2023-06-22T12:17:48;101519.59;;;26.79;41.35
64158;BME280;50449;51.528;5.076;2023-06-22T12:20:13;101523.50;;;26.78;41.76
64158;BME280;50449;51.528;5.076;2023-06-22T12:22:40;101519.09;;;26.77;41.38
64158;BME280;50449;51.528;5.076;2023-06-22T12:25:06;101515.53;;;26.76;41.67
64158;BME280;50449;51.528;5.076;2023-06-22T12:27:32;101516.34;;;26.77;41.16
64158;BME280;50449;51.528;5.076;2023-06-22T12:29:57;101517.47;;;26.76;41.48
64158;BME280;50449;51.528;5.076;2023-06-22T12:32:22;101513.88;;;26.75;41.18
64158;BME280;50449;51.528;5.076;2023-06-22T12:34:48;101507.06;;;26.73;41.25
64158;BME280;50449;51.528;5.076;2023-06-22T12:37:13;101509.03;;;26.72;41.08
64158;BME280;50449;51.528;5.076;2023-06-22T12:39:42;101499.91;;;26.72;41.43
64158;BME280;50449;51.528;5.076;2023-06-22T12:42:08;101510.19;;;26.71;41.42
64158;BME280;50449;51.528;5.076;2023-06-22T12:44:38;101500.22;;;26.70;41.16
64158;BME280;50449;51.528;5.076;2023-06-22T12:47:04;101493.06;;;26.69;41.42
64158;BME280;50449;51.528;5.076;2023-06-22T12:49:30;101487.84;;;26.68;41.25
64158;BME280;50449;51.528;5.076;2023-06-22T12:51:55;101488.19;;;26.66;41.15
64158;BME280;50449;51.528;5.076;2023-06-22T12:54:20;101487.38;;;26.66;41.32
64158;BME280;50449;51.528;5.076;2023-06-22T12:56:46;101492.44;;;26.64;41.64
64158;BME280;50449;51.528;5.076;2023-06-22T12:59:12;101486.91;;;26.64;41.42
64158;BME280;50449;51.528;5.076;2023-06-22T13:01:37;101492.78;;;26.62;41.33